KDNL/DNL METAR and TAF weather

Enter ICAO airport designator
Station Type Date Time Source
KDNL METAR 2018/12/12 04:53 UTC NOAA

KDNL 120453Z AUTO 27003KT 10SM CLR 06/M04 A3023 RMK AO2 SLP235 T00611039 401330017


Station Type Date Time Source
KDNL Decoded METAR 2018/12/12 04:53 UTC NOAA

AUGUSTA DANIEL FIELD, GA, United States (KDNL) 33-28N 82-02W 130M
Dec 11, 2018 - 11:53 PM EST / 2018.12.12 0453 UTC
Wind: from the W (270 degrees) at 3 MPH (3 KT):0
Visibility: 10 mile(s):0
Sky conditions: clear
Temperature: 43.0 F (6.1 C)
Dew Point: 25.0 F (-3.9 C)
Relative Humidity: 48%
Pressure (altimeter): 30.23 in. Hg (1023 hPa)
ob: KDNL 120453Z AUTO 27003KT 10SM CLR 06/M04 A3023 RMK AO2 SLP235 T00611039 401330017
cycle: 5

Station Type Date Time Source
KDNL TAF 2018/12/12 06:36 UTC NOAA

TAF KDNL 120534Z 1206/1306 VRB04KT P6SM SKC
FM121500 27006KT P6SM BKN250


Example: see airport list